sensor_id;sensor_type;location;lat;lon;timestamp;P1;durP1;ratioP1;P2;durP2;ratioP2
6015;SDS011;3036;49.960;8.454;2023-05-16T00:01:31;16.50;;;10.27;;
6015;SDS011;3036;49.960;8.454;2023-05-16T00:03:59;17.63;;;9.30;;
6015;SDS011;3036;49.960;8.454;2023-05-16T00:06:27;17.40;;;9.48;;
6015;SDS011;3036;49.960;8.454;2023-05-16T00:08:55;13.43;;;8.95;;
6015;SDS011;3036;49.960;8.454;2023-05-16T00:11:22;16.10;;;9.57;;
6015;SDS011;3036;49.960;8.454;2023-05-16T00:13:50;18.65;;;9.40;;
6015;SDS011;3036;49.960;8.454;2023-05-16T00:16:17;18.77;;;9.82;;
6015;SDS011;3036;49.960;8.454;2023-05-16T00:18:47;19.02;;;9.18;;
6015;SDS011;3036;49.960;8.454;2023-05-16T00:21:14;13.07;;;7.68;;
6015;SDS011;3036;49.960;8.454;2023-05-16T00:23:41;24.20;;;10.05;;
6015;SDS011;3036;49.960;8.454;2023-05-16T00:26:08;14.55;;;8.88;;
6015;SDS011;3036;49.960;8.454;2023-05-16T00:28:35;13.82;;;8.40;;
6015;SDS011;3036;49.960;8.454;2023-05-16T00:31:02;19.30;;;9.55;;
6015;SDS011;3036;49.960;8.454;2023-05-16T00:33:29;16.10;;;9.40;;
6015;SDS011;3036;49.960;8.454;2023-05-16T00:35:58;15.60;;;9.07;;
6015;SDS011;3036;49.960;8.454;2023-05-16T00:38:25;16.13;;;8.73;;
6015;SDS011;3036;49.960;8.454;2023-05-16T00:40:52;16.10;;;8.57;;
6015;SDS011;3036;49.960;8.454;2023-05-16T00:43:19;15.93;;;8.40;;
6015;SDS011;3036;49.960;8.454;2023-05-16T00:45:46;15.65;;;8.80;;
6015;SDS011;3036;49.960;8.454;2023-05-16T00:48:13;16.15;;;9.20;;
6015;SDS011;3036;49.960;8.454;2023-05-16T00:50:40;17.83;;;8.82;;
6015;SDS011;3036;49.960;8.454;2023-05-16T00:53:09;13.47;;;8.57;;
6015;SDS011;3036;49.960;8.454;2023-05-16T00:55:36;16.77;;;8.45;;
6015;SDS011;3036;49.960;8.454;2023-05-16T00:58:03;15.18;;;8.48;;
6015;SDS011;3036;49.960;8.454;2023-05-16T01:00:31;16.35;;;8.75;;
6015;SDS011;3036;49.960;8.454;2023-05-16T01:02:58;14.00;;;8.32;;
6015;SDS011;3036;49.960;8.454;2023-05-16T01:05:25;17.02;;;8.65;;
6015;SDS011;3036;49.960;8.454;2023-05-16T01:07:52;13.27;;;8.10;;
6015;SDS011;3036;49.960;8.454;2023-05-16T01:10:20;12.80;;;7.35;;
6015;SDS011;3036;49.960;8.454;2023-05-16T01:12:51;13.27;;;8.10;;
6015;SDS011;3036;49.960;8.454;2023-05-16T01:15:23;16.08;;;8.35;;
6015;SDS011;3036;49.960;8.454;2023-05-16T01:17:52;12.93;;;8.45;;
6015;SDS011;3036;49.960;8.454;2023-05-16T01:20:24;14.02;;;8.68;;
6015;SDS011;3036;49.960;8.454;2023-05-16T01:22:58;14.15;;;8.18;;
6015;SDS011;3036;49.960;8.454;2023-05-16T01:25:45;16.50;;;9.03;;
6015;SDS011;3036;49.960;8.454;2023-05-16T01:28:14;11.40;;;7.20;;
6015;SDS011;3036;49.960;8.454;2023-05-16T01:30:41;17.73;;;9.10;;
6015;SDS011;3036;49.960;8.454;2023-05-16T01:33:08;14.67;;;8.70;;
6015;SDS011;3036;49.960;8.454;2023-05-16T01:35:37;12.30;;;8.57;;
6015;SDS011;3036;49.960;8.454;2023-05-16T01:38:08;13.40;;;8.27;;
6015;SDS011;3036;49.960;8.454;2023-05-16T01:40:38;15.48;;;8.82;;
6015;SDS011;3036;49.960;8.454;2023-05-16T01:43:07;13.10;;;8.43;;
6015;SDS011;3036;49.960;8.454;2023-05-16T01:45:39;15.98;;;8.68;;
6015;SDS011;3036;49.960;8.454;2023-05-16T01:48:09;17.13;;;7.63;;
6015;SDS011;3036;49.960;8.454;2023-05-16T01:50:39;15.35;;;8.98;;
6015;SDS011;3036;49.960;8.454;2023-05-16T01:53:11;15.10;;;8.80;;
6015;SDS011;3036;49.960;8.454;2023-05-16T01:55:41;13.32;;;8.13;;
6015;SDS011;3036;49.960;8.454;2023-05-16T01:58:08;12.90;;;7.88;;
6015;SDS011;3036;49.960;8.454;2023-05-16T02:00:36;12.98;;;8.18;;
6015;SDS011;3036;49.960;8.454;2023-05-16T02:03:04;14.10;;;8.50;;
6015;SDS011;3036;49.960;8.454;2023-05-16T02:05:31;8.93;;;6.20;;
6015;SDS011;3036;49.960;8.454;2023-05-16T02:07:58;13.05;;;7.30;;
6015;SDS011;3036;49.960;8.454;2023-05-16T02:10:26;13.13;;;8.10;;
6015;SDS011;3036;49.960;8.454;2023-05-16T02:12:53;11.30;;;6.82;;
6015;SDS011;3036;49.960;8.454;2023-05-16T02:15:20;9.13;;;6.35;;
6015;SDS011;3036;49.960;8.454;2023-05-16T02:17:47;12.52;;;7.40;;
6015;SDS011;3036;49.960;8.454;2023-05-16T02:20:15;8.43;;;6.38;;
6015;SDS011;3036;49.960;8.454;2023-05-16T02:22:42;11.10;;;7.10;;
6015;SDS011;3036;49.960;8.454;2023-05-16T02:25:11;11.18;;;6.85;;
6015;SDS011;3036;49.960;8.454;2023-05-16T02:27:38;13.43;;;7.28;;
6015;SDS011;3036;49.960;8.454;2023-05-16T02:30:07;10.30;;;7.13;;
6015;SDS011;3036;49.960;8.454;2023-05-16T02:32:34;20.37;;;7.23;;
6015;SDS011;3036;49.960;8.454;2023-05-16T02:35:02;12.77;;;7.47;;
6015;SDS011;3036;49.960;8.454;2023-05-16T02:37:30;14.07;;;6.47;;
6015;SDS011;3036;49.960;8.454;2023-05-16T02:39:57;10.10;;;6.65;;
6015;SDS011;3036;49.960;8.454;2023-05-16T02:42:24;9.00;;;6.10;;
6015;SDS011;3036;49.960;8.454;2023-05-16T02:44:52;9.53;;;6.20;;
6015;SDS011;3036;49.960;8.454;2023-05-16T02:47:19;11.18;;;7.60;;
6015;SDS011;3036;49.960;8.454;2023-05-16T02:49:46;11.52;;;6.85;;
6015;SDS011;3036;49.960;8.454;2023-05-16T02:52:13;15.75;;;6.88;;
6015;SDS011;3036;49.960;8.454;2023-05-16T02:54:41;11.98;;;8.25;;
6015;SDS011;3036;49.960;8.454;2023-05-16T02:57:08;11.32;;;6.75;;
6015;SDS011;3036;49.960;8.454;2023-05-16T02:59:36;14.07;;;6.68;;
6015;SDS011;3036;49.960;8.454;2023-05-16T03:02:03;14.20;;;6.70;;
6015;SDS011;3036;49.960;8.454;2023-05-16T03:04:30;13.13;;;7.25;;
6015;SDS011;3036;49.960;8.454;2023-05-16T03:06:57;10.53;;;7.27;;
6015;SDS011;3036;49.960;8.454;2023-05-16T03:09:24;13.63;;;7.03;;
6015;SDS011;3036;49.960;8.454;2023-05-16T03:11:52;8.73;;;6.05;;
6015;SDS011;3036;49.960;8.454;2023-05-16T03:14:20;11.55;;;7.22;;
6015;SDS011;3036;49.960;8.454;2023-05-16T03:16:47;13.82;;;7.72;;
6015;SDS011;3036;49.960;8.454;2023-05-16T03:19:14;12.20;;;6.63;;
6015;SDS011;3036;49.960;8.454;2023-05-16T03:21:41;9.73;;;6.10;;
6015;SDS011;3036;49.960;8.454;2023-05-16T03:24:09;11.85;;;6.85;;
6015;SDS011;3036;49.960;8.454;2023-05-16T03:26:36;16.92;;;6.05;;
6015;SDS011;3036;49.960;8.454;2023-05-16T03:29:05;11.13;;;6.57;;
6015;SDS011;3036;49.960;8.454;2023-05-16T03:31:32;7.77;;;5.73;;
6015;SDS011;3036;49.960;8.454;2023-05-16T03:33:59;8.30;;;5.90;;
6015;SDS011;3036;49.960;8.454;2023-05-16T03:36:26;18.10;;;6.95;;
6015;SDS011;3036;49.960;8.454;2023-05-16T03:38:54;11.03;;;6.17;;
6015;SDS011;3036;49.960;8.454;2023-05-16T03:41:21;12.93;;;6.53;;
6015;SDS011;3036;49.960;8.454;2023-05-16T03:43:48;11.57;;;6.78;;
6015;SDS011;3036;49.960;8.454;2023-05-16T03:46:16;10.87;;;6.27;;
6015;SDS011;3036;49.960;8.454;2023-05-16T03:48:43;11.57;;;6.37;;
6015;SDS011;3036;49.960;8.454;2023-05-16T03:51:11;9.83;;;5.90;;
6015;SDS011;3036;49.960;8.454;2023-05-16T03:53:38;10.40;;;6.00;;
6015;SDS011;3036;49.960;8.454;2023-05-16T03:56:05;15.23;;;6.50;;
6015;SDS011;3036;49.960;8.454;2023-05-16T03:58:32;10.93;;;5.63;;
6015;SDS011;3036;49.960;8.454;2023-05-16T04:00:59;8.17;;;5.37;;
6015;SDS011;3036;49.960;8.454;2023-05-16T04:03:28;7.07;;;5.00;;
6015;SDS011;3036;49.960;8.454;2023-05-16T04:05:55;6.67;;;4.60;;
6015;SDS011;3036;49.960;8.454;2023-05-16T04:08:22;7.10;;;4.90;;
6015;SDS011;3036;49.960;8.454;2023-05-16T04:10:49;6.07;;;4.37;;
6015;SDS011;3036;49.960;8.454;2023-05-16T04:13:16;6.67;;;4.50;;
6015;SDS011;3036;49.960;8.454;2023-05-16T04:15:43;6.93;;;4.27;;
6015;SDS011;3036;49.960;8.454;2023-05-16T04:18:11;5.68;;;4.03;;
6015;SDS011;3036;49.960;8.454;2023-05-16T04:20:40;3.80;;;3.47;;
6015;SDS011;3036;49.960;8.454;2023-05-16T04:23:07;3.60;;;3.30;;
6015;SDS011;3036;49.960;8.454;2023-05-16T04:25:36;4.23;;;3.60;;
6015;SDS011;3036;49.960;8.454;2023-05-16T04:28:03;4.20;;;2.90;;
6015;SDS011;3036;49.960;8.454;2023-05-16T04:30:30;2.57;;;2.37;;
6015;SDS011;3036;49.960;8.454;2023-05-16T04:32:58;8.87;;;2.27;;
6015;SDS011;3036;49.960;8.454;2023-05-16T04:35:26;2.20;;;1.70;;
6015;SDS011;3036;49.960;8.454;2023-05-16T04:37:54;2.17;;;1.87;;
6015;SDS011;3036;49.960;8.454;2023-05-16T04:40:21;2.75;;;2.20;;
6015;SDS011;3036;49.960;8.454;2023-05-16T04:42:49;3.33;;;1.53;;
6015;SDS011;3036;49.960;8.454;2023-05-16T04:45:17;1.70;;;1.60;;
6015;SDS011;3036;49.960;8.454;2023-05-16T04:47:45;1.13;;;1.13;;
6015;SDS011;3036;49.960;8.454;2023-05-16T04:50:12;1.10;;;1.10;;
6015;SDS011;3036;49.960;8.454;2023-05-16T04:52:40;0.87;;;0.87;;
6015;SDS011;3036;49.960;8.454;2023-05-16T04:55:09;0.90;;;0.90;;
6015;SDS011;3036;49.960;8.454;2023-05-16T04:57:36;0.93;;;0.70;;
6015;SDS011;3036;49.960;8.454;2023-05-16T05:00:05;0.73;;;0.73;;
6015;SDS011;3036;49.960;8.454;2023-05-16T05:02:34;1.17;;;0.60;;
6015;SDS011;3036;49.960;8.454;2023-05-16T05:05:01;1.30;;;0.77;;
6015;SDS011;3036;49.960;8.454;2023-05-16T05:07:28;0.40;;;0.40;;
6015;SDS011;3036;49.960;8.454;2023-05-16T05:09:55;0.50;;;0.50;;
6015;SDS011;3036;49.960;8.454;2023-05-16T05:12:24;0.40;;;0.40;;
6015;SDS011;3036;49.960;8.454;2023-05-16T05:14:52;0.43;;;0.43;;
6015;SDS011;3036;49.960;8.454;2023-05-16T05:17:19;1.10;;;0.70;;
6015;SDS011;3036;49.960;8.454;2023-05-16T05:19:46;0.60;;;0.60;;
6015;SDS011;3036;49.960;8.454;2023-05-16T05:22:13;0.57;;;0.57;;
6015;SDS011;3036;49.960;8.454;2023-05-16T05:24:51;0.70;;;0.65;;
6015;SDS011;3036;49.960;8.454;2023-05-16T05:27:21;0.40;;;0.40;;
6015;SDS011;3036;49.960;8.454;2023-05-16T05:29:50;0.75;;;0.50;;
6015;SDS011;3036;49.960;8.454;2023-05-16T05:32:17;0.50;;;0.50;;
6015;SDS011;3036;49.960;8.454;2023-05-16T05:34:44;0.50;;;0.50;;
6015;SDS011;3036;49.960;8.454;2023-05-16T05:37:11;0.45;;;0.45;;
6015;SDS011;3036;49.960;8.454;2023-05-16T05:39:38;0.30;;;0.30;;
6015;SDS011;3036;49.960;8.454;2023-05-16T05:42:05;0.50;;;0.50;;
6015;SDS011;3036;49.960;8.454;2023-05-16T05:44:32;0.53;;;0.53;;
6015;SDS011;3036;49.960;8.454;2023-05-16T05:47:03;0.40;;;0.40;;
6015;SDS011;3036;49.960;8.454;2023-05-16T05:49:30;0.50;;;0.50;;
6015;SDS011;3036;49.960;8.454;2023-05-16T05:51:57;0.52;;;0.52;;
6015;SDS011;3036;49.960;8.454;2023-05-16T05:54:24;1.57;;;0.60;;
6015;SDS011;3036;49.960;8.454;2023-05-16T05:56:51;0.63;;;0.63;;
6015;SDS011;3036;49.960;8.454;2023-05-16T05:59:18;0.85;;;0.47;;
6015;SDS011;3036;49.960;8.454;2023-05-16T06:01:45;0.50;;;0.50;;
6015;SDS011;3036;49.960;8.454;2023-05-16T06:04:17;0.50;;;0.50;;
6015;SDS011;3036;49.960;8.454;2023-05-16T06:06:45;0.60;;;0.60;;
6015;SDS011;3036;49.960;8.454;2023-05-16T06:09:12;2.58;;;0.40;;
6015;SDS011;3036;49.960;8.454;2023-05-16T06:11:39;0.30;;;0.30;;
6015;SDS011;3036;49.960;8.454;2023-05-16T06:14:06;0.28;;;0.28;;
6015;SDS011;3036;49.960;8.454;2023-05-16T06:16:33;0.30;;;0.30;;
6015;SDS011;3036;49.960;8.454;2023-05-16T06:19:00;0.10;;;0.10;;
6015;SDS011;3036;49.960;8.454;2023-05-16T06:21:28;0.30;;;0.30;;
6015;SDS011;3036;49.960;8.454;2023-05-16T06:23:56;0.30;;;0.30;;
6015;SDS011;3036;49.960;8.454;2023-05-16T06:26:23;0.10;;;0.10;;
6015;SDS011;3036;49.960;8.454;2023-05-16T06:28:50;0.30;;;0.30;;
6015;SDS011;3036;49.960;8.454;2023-05-16T06:31:17;0.30;;;0.30;;
6015;SDS011;3036;49.960;8.454;2023-05-16T06:33:44;0.20;;;0.20;;
6015;SDS011;3036;49.960;8.454;2023-05-16T06:36:11;0.57;;;0.20;;
6015;SDS011;3036;49.960;8.454;2023-05-16T06:38:39;0.23;;;0.23;;
6015;SDS011;3036;49.960;8.454;2023-05-16T06:41:06;0.57;;;0.22;;
6015;SDS011;3036;49.960;8.454;2023-05-16T06:43:33;0.23;;;0.23;;
6015;SDS011;3036;49.960;8.454;2023-05-16T06:46:00;0.20;;;0.20;;
6015;SDS011;3036;49.960;8.454;2023-05-16T06:48:28;0.20;;;0.20;;
6015;SDS011;3036;49.960;8.454;2023-05-16T06:50:55;0.10;;;0.10;;
6015;SDS011;3036;49.960;8.454;2023-05-16T06:53:22;0.30;;;0.30;;
6015;SDS011;3036;49.960;8.454;2023-05-16T06:55:50;0.20;;;0.20;;
6015;SDS011;3036;49.960;8.454;2023-05-16T06:58:17;0.10;;;0.10;;
6015;SDS011;3036;49.960;8.454;2023-05-16T07:00:44;0.27;;;0.27;;
6015;SDS011;3036;49.960;8.454;2023-05-16T07:03:11;0.20;;;0.20;;
6015;SDS011;3036;49.960;8.454;2023-05-16T07:05:38;0.20;;;0.20;;
6015;SDS011;3036;49.960;8.454;2023-05-16T07:08:07;0.10;;;0.10;;
6015;SDS011;3036;49.960;8.454;2023-05-16T07:10:34;0.10;;;0.10;;
6015;SDS011;3036;49.960;8.454;2023-05-16T07:13:03;0.10;;;0.10;;
6015;SDS011;3036;49.960;8.454;2023-05-16T07:15:30;0.20;;;0.20;;
6015;SDS011;3036;49.960;8.454;2023-05-16T07:17:58;0.20;;;0.20;;
6015;SDS011;3036;49.960;8.454;2023-05-16T07:20:25;0.10;;;0.10;;
6015;SDS011;3036;49.960;8.454;2023-05-16T07:22:52;0.20;;;0.20;;
6015;SDS011;3036;49.960;8.454;2023-05-16T07:25:21;0.20;;;0.20;;
6015;SDS011;3036;49.960;8.454;2023-05-16T07:27:48;2.00;;;0.27;;
6015;SDS011;3036;49.960;8.454;2023-05-16T07:30:16;0.13;;;0.13;;
6015;SDS011;3036;49.960;8.454;2023-05-16T07:32:44;0.10;;;0.10;;
6015;SDS011;3036;49.960;8.454;2023-05-16T07:35:11;0.57;;;0.20;;
6015;SDS011;3036;49.960;8.454;2023-05-16T07:37:38;0.13;;;0.13;;
6015;SDS011;3036;49.960;8.454;2023-05-16T07:40:07;0.20;;;0.20;;
6015;SDS011;3036;49.960;8.454;2023-05-16T07:42:35;0.10;;;0.10;;
6015;SDS011;3036;49.960;8.454;2023-05-16T07:45:02;0.10;;;0.10;;
6015;SDS011;3036;49.960;8.454;2023-05-16T07:47:30;0.10;;;0.10;;
6015;SDS011;3036;49.960;8.454;2023-05-16T07:49:57;0.10;;;0.10;;
6015;SDS011;3036;49.960;8.454;2023-05-16T07:52:25;0.20;;;0.20;;
6015;SDS011;3036;49.960;8.454;2023-05-16T07:54:52;0.10;;;0.10;;
6015;SDS011;3036;49.960;8.454;2023-05-16T07:57:19;0.10;;;0.10;;
6015;SDS011;3036;49.960;8.454;2023-05-16T07:59:47;0.10;;;0.10;;
6015;SDS011;3036;49.960;8.454;2023-05-16T08:02:14;0.00;;;0.00;;
6015;SDS011;3036;49.960;8.454;2023-05-16T08:04:43;0.10;;;0.10;;
6015;SDS011;3036;49.960;8.454;2023-05-16T08:07:10;0.10;;;0.10;;
6015;SDS011;3036;49.960;8.454;2023-05-16T08:09:37;0.10;;;0.10;;
6015;SDS011;3036;49.960;8.454;2023-05-16T08:12:04;0.00;;;0.00;;
6015;SDS011;3036;49.960;8.454;2023-05-16T08:14:31;0.10;;;0.10;;
6015;SDS011;3036;49.960;8.454;2023-05-16T08:16:58;0.00;;;0.00;;
6015;SDS011;3036;49.960;8.454;2023-05-16T08:19:25;0.00;;;0.00;;
6015;SDS011;3036;49.960;8.454;2023-05-16T08:21:54;0.00;;;0.00;;
6015;SDS011;3036;49.960;8.454;2023-05-16T08:24:21;0.00;;;0.00;;
6015;SDS011;3036;49.960;8.454;2023-05-16T08:26:48;0.00;;;0.00;;
6015;SDS011;3036;49.960;8.454;2023-05-16T08:29:15;0.10;;;0.10;;
6015;SDS011;3036;49.960;8.454;2023-05-16T08:31:42;0.00;;;0.00;;
6015;SDS011;3036;49.960;8.454;2023-05-16T08:34:09;0.00;;;0.00;;
6015;SDS011;3036;49.960;8.454;2023-05-16T08:36:36;0.00;;;0.00;;
6015;SDS011;3036;49.960;8.454;2023-05-16T08:39:05;0.03;;;0.03;;
6015;SDS011;3036;49.960;8.454;2023-05-16T08:41:34;0.00;;;0.00;;
6015;SDS011;3036;49.960;8.454;2023-05-16T08:44:01;0.00;;;0.00;;
6015;SDS011;3036;49.960;8.454;2023-05-16T08:46:28;0.00;;;0.00;;
6015;SDS011;3036;49.960;8.454;2023-05-16T08:51:41;0.00;;;0.00;;
6015;SDS011;3036;49.960;8.454;2023-05-16T08:54:10;0.00;;;0.00;;
6015;SDS011;3036;49.960;8.454;2023-05-16T08:56:37;0.00;;;0.00;;
6015;SDS011;3036;49.960;8.454;2023-05-16T08:59:04;0.00;;;0.00;;
6015;SDS011;3036;49.960;8.454;2023-05-16T09:01:32;0.40;;;0.10;;
6015;SDS011;3036;49.960;8.454;2023-05-16T09:03:59;0.00;;;0.00;;
6015;SDS011;3036;49.960;8.454;2023-05-16T09:06:26;0.00;;;0.00;;
6015;SDS011;3036;49.960;8.454;2023-05-16T09:08:53;0.00;;;0.00;;
6015;SDS011;3036;49.960;8.454;2023-05-16T09:11:22;0.00;;;0.00;;
6015;SDS011;3036;49.960;8.454;2023-05-16T09:13:49;0.10;;;0.10;;
6015;SDS011;3036;49.960;8.454;2023-05-16T09:16:17;0.20;;;0.20;;
6015;SDS011;3036;49.960;8.454;2023-05-16T09:18:45;0.40;;;0.10;;
6015;SDS011;3036;49.960;8.454;2023-05-16T09:21:12;0.07;;;0.07;;
6015;SDS011;3036;49.960;8.454;2023-05-16T09:23:41;0.40;;;0.20;;
6015;SDS011;3036;49.960;8.454;2023-05-16T09:26:09;0.33;;;0.10;;
6015;SDS011;3036;49.960;8.454;2023-05-16T09:28:37;0.10;;;0.10;;
6015;SDS011;3036;49.960;8.454;2023-05-16T09:31:17;0.10;;;0.10;;
6015;SDS011;3036;49.960;8.454;2023-05-16T09:33:44;0.20;;;0.20;;
6015;SDS011;3036;49.960;8.454;2023-05-16T09:36:11;0.20;;;0.20;;
6015;SDS011;3036;49.960;8.454;2023-05-16T09:38:39;0.10;;;0.10;;
6015;SDS011;3036;49.960;8.454;2023-05-16T09:41:07;1.90;;;0.10;;
6015;SDS011;3036;49.960;8.454;2023-05-16T09:43:36;0.20;;;0.20;;
6015;SDS011;3036;49.960;8.454;2023-05-16T09:46:05;0.20;;;0.20;;
6015;SDS011;3036;49.960;8.454;2023-05-16T09:48:32;0.57;;;0.20;;
6015;SDS011;3036;49.960;8.454;2023-05-16T09:50:59;0.20;;;0.20;;
6015;SDS011;3036;49.960;8.454;2023-05-16T09:53:29;0.20;;;0.20;;
6015;SDS011;3036;49.960;8.454;2023-05-16T09:55:58;0.33;;;0.20;;
6015;SDS011;3036;49.960;8.454;2023-05-16T09:58:27;0.23;;;0.23;;
6015;SDS011;3036;49.960;8.454;2023-05-16T10:00:55;1.50;;;0.30;;
6015;SDS011;3036;49.960;8.454;2023-05-16T10:03:24;0.00;;;0.00;;
6015;SDS011;3036;49.960;8.454;2023-05-16T10:05:51;0.30;;;0.30;;
6015;SDS011;3036;49.960;8.454;2023-05-16T10:08:19;0.33;;;0.30;;
6015;SDS011;3036;49.960;8.454;2023-05-16T10:10:46;1.23;;;0.23;;
6015;SDS011;3036;49.960;8.454;2023-05-16T10:13:15;3.23;;;0.40;;
6015;SDS011;3036;49.960;8.454;2023-05-16T10:15:43;0.50;;;0.50;;
6015;SDS011;3036;49.960;8.454;2023-05-16T10:18:10;1.37;;;0.60;;
6015;SDS011;3036;49.960;8.454;2023-05-16T10:20:41;0.50;;;0.50;;
6015;SDS011;3036;49.960;8.454;2023-05-16T10:23:08;1.03;;;0.43;;
6015;SDS011;3036;49.960;8.454;2023-05-16T10:25:40;5.00;;;0.60;;
6015;SDS011;3036;49.960;8.454;2023-05-16T10:28:08;4.83;;;0.50;;
6015;SDS011;3036;49.960;8.454;2023-05-16T10:30:36;0.97;;;0.77;;
6015;SDS011;3036;49.960;8.454;2023-05-16T10:33:08;1.80;;;0.50;;
6015;SDS011;3036;49.960;8.454;2023-05-16T10:35:35;0.73;;;0.63;;
6015;SDS011;3036;49.960;8.454;2023-05-16T10:38:03;0.20;;;0.20;;
6015;SDS011;3036;49.960;8.454;2023-05-16T10:40:30;0.30;;;0.30;;
6015;SDS011;3036;49.960;8.454;2023-05-16T10:42:58;0.87;;;0.33;;
6015;SDS011;3036;49.960;8.454;2023-05-16T10:45:26;0.40;;;0.40;;
6015;SDS011;3036;49.960;8.454;2023-05-16T10:47:54;0.77;;;0.60;;
6015;SDS011;3036;49.960;8.454;2023-05-16T10:53:13;5.05;;;1.25;;
6015;SDS011;3036;49.960;8.454;2023-05-16T10:55:45;4.60;;;0.30;;
6015;SDS011;3036;49.960;8.454;2023-05-16T10:58:17;3.60;;;0.52;;
6015;SDS011;3036;49.960;8.454;2023-05-16T11:00:46;0.73;;;0.60;;
6015;SDS011;3036;49.960;8.454;2023-05-16T11:03:18;1.53;;;0.47;;
6015;SDS011;3036;49.960;8.454;2023-05-16T11:05:50;0.40;;;0.40;;
6015;SDS011;3036;49.960;8.454;2023-05-16T11:08:19;1.90;;;0.80;;
6015;SDS011;3036;49.960;8.454;2023-05-16T11:10:46;2.97;;;0.50;;
6015;SDS011;3036;49.960;8.454;2023-05-16T11:13:13;0.47;;;0.23;;
6015;SDS011;3036;49.960;8.454;2023-05-16T11:15:43;3.23;;;0.50;;
6015;SDS011;3036;49.960;8.454;2023-05-16T11:18:13;2.80;;;0.47;;
6015;SDS011;3036;49.960;8.454;2023-05-16T11:20:40;0.40;;;0.40;;
6015;SDS011;3036;49.960;8.454;2023-05-16T11:23:22;1.97;;;0.40;;
6015;SDS011;3036;49.960;8.454;2023-05-16T11:25:51;1.80;;;0.37;;
6015;SDS011;3036;49.960;8.454;2023-05-16T11:28:18;2.13;;;0.50;;
6015;SDS011;3036;49.960;8.454;2023-05-16T11:30:46;0.60;;;0.30;;
6015;SDS011;3036;49.960;8.454;2023-05-16T11:33:14;0.50;;;0.30;;
6015;SDS011;3036;49.960;8.454;2023-05-16T11:35:41;1.27;;;0.40;;
6015;SDS011;3036;49.960;8.454;2023-05-16T11:38:12;0.90;;;0.50;;
6015;SDS011;3036;49.960;8.454;2023-05-16T11:40:42;1.80;;;0.63;;
6015;SDS011;3036;49.960;8.454;2023-05-16T11:43:09;0.52;;;0.35;;
6015;SDS011;3036;49.960;8.454;2023-05-16T11:45:36;0.33;;;0.33;;
6015;SDS011;3036;49.960;8.454;2023-05-16T11:48:04;0.73;;;0.52;;
6015;SDS011;3036;49.960;8.454;2023-05-16T11:50:33;3.90;;;0.70;;
6015;SDS011;3036;49.960;8.454;2023-05-16T11:53:00;0.50;;;0.50;;
6015;SDS011;3036;49.960;8.454;2023-05-16T11:55:27;2.05;;;0.68;;
6015;SDS011;3036;49.960;8.454;2023-05-16T11:57:57;0.35;;;0.35;;
6015;SDS011;3036;49.960;8.454;2023-05-16T12:00:25;0.52;;;0.43;;
6015;SDS011;3036;49.960;8.454;2023-05-16T12:02:52;0.50;;;0.40;;
6015;SDS011;3036;49.960;8.454;2023-05-16T12:05:20;1.15;;;0.43;;
6015;SDS011;3036;49.960;8.454;2023-05-16T12:07:52;1.23;;;0.57;;
6015;SDS011;3036;49.960;8.454;2023-05-16T12:10:19;0.90;;;0.35;;
6015;SDS011;3036;49.960;8.454;2023-05-16T12:12:47;1.35;;;0.30;;
6015;SDS011;3036;49.960;8.454;2023-05-16T12:15:17;0.50;;;0.50;;
6015;SDS011;3036;49.960;8.454;2023-05-16T12:17:44;0.55;;;0.30;;
6015;SDS011;3036;49.960;8.454;2023-05-16T12:20:11;1.88;;;0.50;;
6015;SDS011;3036;49.960;8.454;2023-05-16T12:22:40;0.63;;;0.40;;
6015;SDS011;3036;49.960;8.454;2023-05-16T12:25:20;1.85;;;0.10;;
6015;SDS011;3036;49.960;8.454;2023-05-16T12:27:47;0.65;;;0.55;;
6015;SDS011;3036;49.960;8.454;2023-05-16T12:30:16;1.17;;;0.35;;
6015;SDS011;3036;49.960;8.454;2023-05-16T12:32:43;0.55;;;0.20;;
6015;SDS011;3036;49.960;8.454;2023-05-16T12:35:11;0.82;;;0.50;;
6015;SDS011;3036;49.960;8.454;2023-05-16T12:37:38;0.47;;;0.47;;
6015;SDS011;3036;49.960;8.454;2023-05-16T12:40:05;2.88;;;0.70;;
6015;SDS011;3036;49.960;8.454;2023-05-16T12:42:37;0.65;;;0.30;;
6015;SDS011;3036;49.960;8.454;2023-05-16T12:45:04;0.40;;;0.40;;
6015;SDS011;3036;49.960;8.454;2023-05-16T12:47:36;1.52;;;0.30;;
6015;SDS011;3036;49.960;8.454;2023-05-16T12:50:07;1.00;;;0.47;;
6015;SDS011;3036;49.960;8.454;2023-05-16T12:52:35;0.20;;;0.20;;
6015;SDS011;3036;49.960;8.454;2023-05-16T12:55:03;1.60;;;0.20;;
6015;SDS011;3036;49.960;8.454;2023-05-16T12:57:30;0.70;;;0.30;;
6015;SDS011;3036;49.960;8.454;2023-05-16T12:59:57;0.38;;;0.38;;
6015;SDS011;3036;49.960;8.454;2023-05-16T13:02:25;0.95;;;0.20;;
6015;SDS011;3036;49.960;8.454;2023-05-16T13:04:53;0.40;;;0.40;;
6015;SDS011;3036;49.960;8.454;2023-05-16T13:07:21;3.97;;;0.20;;
6015;SDS011;3036;49.960;8.454;2023-05-16T13:09:48;0.40;;;0.20;;
6015;SDS011;3036;49.960;8.454;2023-05-16T13:12:15;0.90;;;0.40;;
6015;SDS011;3036;49.960;8.454;2023-05-16T13:14:42;0.30;;;0.30;;
6015;SDS011;3036;49.960;8.454;2023-05-16T13:17:10;0.70;;;0.30;;
6015;SDS011;3036;49.960;8.454;2023-05-16T13:19:37;0.22;;;0.22;;
6015;SDS011;3036;49.960;8.454;2023-05-16T13:22:06;2.50;;;0.40;;
6015;SDS011;3036;49.960;8.454;2023-05-16T13:24:33;3.35;;;0.68;;
6015;SDS011;3036;49.960;8.454;2023-05-16T13:27:00;0.20;;;0.20;;
6015;SDS011;3036;49.960;8.454;2023-05-16T13:29:27;1.65;;;0.63;;
6015;SDS011;3036;49.960;8.454;2023-05-16T13:31:54;0.38;;;0.30;;
6015;SDS011;3036;49.960;8.454;2023-05-16T13:34:21;1.60;;;0.60;;
6015;SDS011;3036;49.960;8.454;2023-05-16T13:36:48;3.63;;;0.20;;
6015;SDS011;3036;49.960;8.454;2023-05-16T13:39:17;0.75;;;0.20;;
6015;SDS011;3036;49.960;8.454;2023-05-16T13:41:44;2.45;;;0.80;;
6015;SDS011;3036;49.960;8.454;2023-05-16T13:44:12;0.10;;;0.10;;
6015;SDS011;3036;49.960;8.454;2023-05-16T13:46:39;1.27;;;0.80;;
6015;SDS011;3036;49.960;8.454;2023-05-16T13:49:06;0.40;;;0.20;;
6015;SDS011;3036;49.960;8.454;2023-05-16T13:51:33;7.55;;;0.43;;
6015;SDS011;3036;49.960;8.454;2023-05-16T13:54:00;0.28;;;0.28;;
6015;SDS011;3036;49.960;8.454;2023-05-16T13:56:29;0.30;;;0.30;;
6015;SDS011;3036;49.960;8.454;2023-05-16T13:58:56;0.10;;;0.10;;
6015;SDS011;3036;49.960;8.454;2023-05-16T14:01:23;0.43;;;0.43;;
6015;SDS011;3036;49.960;8.454;2023-05-16T14:03:50;0.98;;;0.40;;
6015;SDS011;3036;49.960;8.454;2023-05-16T14:06:17;2.75;;;0.40;;
6015;SDS011;3036;49.960;8.454;2023-05-16T14:08:46;0.25;;;0.20;;
6015;SDS011;3036;49.960;8.454;2023-05-16T14:11:13;0.13;;;0.13;;
6015;SDS011;3036;49.960;8.454;2023-05-16T14:13:44;0.30;;;0.30;;
6015;SDS011;3036;49.960;8.454;2023-05-16T14:16:13;0.50;;;0.40;;
6015;SDS011;3036;49.960;8.454;2023-05-16T14:18:40;0.50;;;0.38;;
6015;SDS011;3036;49.960;8.454;2023-05-16T14:21:07;1.45;;;0.30;;
6015;SDS011;3036;49.960;8.454;2023-05-16T14:23:34;0.73;;;0.73;;
6015;SDS011;3036;49.960;8.454;2023-05-16T14:26:01;2.45;;;0.28;;
6015;SDS011;3036;49.960;8.454;2023-05-16T14:28:28;1.00;;;0.75;;
6015;SDS011;3036;49.960;8.454;2023-05-16T14:30:58;0.10;;;0.10;;
6015;SDS011;3036;49.960;8.454;2023-05-16T14:33:25;0.20;;;0.20;;
6015;SDS011;3036;49.960;8.454;2023-05-16T14:35:52;0.38;;;0.30;;
6015;SDS011;3036;49.960;8.454;2023-05-16T14:38:19;0.40;;;0.40;;
6015;SDS011;3036;49.960;8.454;2023-05-16T14:40:46;0.20;;;0.10;;
6015;SDS011;3036;49.960;8.454;2023-05-16T14:43:13;0.68;;;0.20;;
6015;SDS011;3036;49.960;8.454;2023-05-16T14:45:40;2.17;;;0.52;;
6015;SDS011;3036;49.960;8.454;2023-05-16T14:48:09;0.13;;;0.13;;
6015;SDS011;3036;49.960;8.454;2023-05-16T14:50:36;2.72;;;0.90;;
6015;SDS011;3036;49.960;8.454;2023-05-16T14:53:03;0.35;;;0.35;;
6015;SDS011;3036;49.960;8.454;2023-05-16T14:55:30;0.40;;;0.40;;
6015;SDS011;3036;49.960;8.454;2023-05-16T14:57:57;0.20;;;0.20;;
6015;SDS011;3036;49.960;8.454;2023-05-16T15:00:24;0.68;;;0.30;;
6015;SDS011;3036;49.960;8.454;2023-05-16T15:02:51;1.35;;;0.30;;
6015;SDS011;3036;49.960;8.454;2023-05-16T15:05:20;0.80;;;0.20;;
6015;SDS011;3036;49.960;8.454;2023-05-16T15:07:49;2.05;;;0.20;;
6015;SDS011;3036;49.960;8.454;2023-05-16T15:10:16;0.47;;;0.22;;
6015;SDS011;3036;49.960;8.454;2023-05-16T15:12:43;0.10;;;0.10;;
6015;SDS011;3036;49.960;8.454;2023-05-16T15:15:10;1.50;;;0.40;;
6015;SDS011;3036;49.960;8.454;2023-05-16T15:17:37;0.17;;;0.17;;
6015;SDS011;3036;49.960;8.454;2023-05-16T15:20:06;1.40;;;0.10;;
6015;SDS011;3036;49.960;8.454;2023-05-16T15:22:34;0.32;;;0.28;;